createdAt,value
2019-06-20T00:03:25.508Z,3.60
2019-06-20T00:08:31.422Z,3.60
2019-06-20T00:13:36.762Z,3.60
2019-06-20T00:18:42.058Z,3.67
2019-06-20T00:23:47.501Z,3.62
2019-06-20T00:28:53.117Z,3.52
2019-06-20T00:33:58.430Z,3.60
2019-06-20T00:39:03.929Z,3.47
2019-06-20T00:44:09.939Z,3.80
2019-06-20T00:49:15.274Z,3.60
2019-06-20T00:54:21.035Z,4.47
2019-06-20T00:59:26.998Z,4.20
2019-06-20T01:04:32.234Z,4.92
2019-06-20T01:09:37.665Z,4.08
2019-06-20T01:14:43.017Z,3.90
2019-06-20T01:19:48.580Z,3.80
2019-06-20T01:24:54.891Z,4.10
2019-06-20T01:30:00.140Z,4.05
2019-06-20T01:35:06.314Z,3.72
2019-06-20T01:40:11.883Z,3.90
2019-06-20T01:45:17.301Z,3.67
2019-06-20T01:50:22.533Z,3.83
2019-06-20T01:55:27.854Z,4.00
2019-06-20T02:00:35.842Z,4.10
2019-06-20T02:05:41.267Z,4.00
2019-06-20T02:10:46.639Z,3.80
2019-06-20T02:15:51.946Z,3.60
2019-06-20T02:20:58.682Z,3.60
2019-06-20T02:26:04.018Z,3.60
2019-06-20T02:31:10.703Z,3.80
2019-06-20T02:36:16.117Z,3.87
2019-06-20T02:41:21.425Z,4.00
2019-06-20T02:46:26.760Z,4.00
2019-06-20T02:51:32.054Z,4.20
2019-06-20T02:56:37.438Z,4.42
2019-06-20T03:01:42.717Z,3.85
2019-06-20T03:06:48.043Z,3.83
2019-06-20T03:11:53.509Z,3.95
2019-06-20T03:16:58.725Z,4.30
2019-06-20T03:22:04.126Z,4.00
2019-06-20T03:27:09.561Z,3.67
2019-06-20T03:32:15.218Z,3.98
2019-06-20T03:37:20.615Z,3.90
2019-06-20T03:42:25.897Z,3.80
2019-06-20T03:47:31.493Z,3.92
2019-06-20T03:52:36.814Z,3.77
2019-06-20T03:57:42.105Z,3.80
2019-06-20T04:02:47.526Z,4.03
2019-06-20T04:07:52.778Z,3.83
2019-06-20T04:12:58.277Z,3.93
2019-06-20T04:18:03.850Z,4.22
2019-06-20T04:23:09.598Z,3.95
2019-06-20T04:28:14.918Z,4.22
2019-06-20T04:33:20.163Z,4.00
2019-06-20T04:38:25.485Z,4.10
2019-06-20T04:43:31.748Z,4.22
2019-06-20T04:48:37.072Z,4.28
2019-06-20T04:53:42.417Z,3.90
2019-06-20T04:58:48.089Z,3.65
2019-06-20T05:03:53.357Z,4.00
2019-06-20T05:08:58.675Z,3.35
2019-06-20T05:14:04.049Z,4.00
2019-06-20T05:19:09.760Z,3.73
2019-06-20T05:24:15.087Z,4.00
2019-06-20T05:29:20.338Z,3.75
2019-06-20T05:34:25.686Z,3.70
2019-06-20T05:39:31.095Z,3.63
2019-06-20T05:44:36.368Z,3.37
2019-06-20T05:49:41.584Z,3.35
2019-06-20T05:54:46.902Z,2.90
2019-06-20T05:59:52.374Z,3.43
2019-06-20T06:04:57.650Z,3.50
2019-06-20T06:10:03.974Z,3.40
2019-06-20T06:15:11.109Z,3.27
2019-06-20T06:20:16.728Z,3.13
2019-06-20T06:25:22.747Z,3.25
2019-06-20T06:30:28.107Z,3.27
2019-06-20T06:35:33.479Z,3.15
2019-06-20T06:40:38.775Z,3.20
2019-06-20T06:45:44.083Z,3.23
2019-06-20T06:50:49.423Z,2.70
2019-06-20T06:55:54.981Z,2.30
2019-06-20T07:01:00.310Z,2.10
2019-06-20T07:06:05.677Z,2.30
2019-06-20T07:11:11.466Z,2.17
2019-06-20T07:16:17.289Z,2.00
2019-06-20T07:21:23.682Z,2.10
2019-06-20T07:26:29.068Z,2.07
2019-06-20T07:31:34.458Z,1.90
2019-06-20T07:36:39.797Z,1.50
2019-06-20T07:41:45.221Z,1.60
2019-06-20T07:46:50.623Z,1.80
2019-06-20T07:51:55.990Z,1.60
2019-06-20T07:57:01.577Z,1.73
2019-06-20T08:02:07.174Z,2.07
2019-06-20T08:07:12.623Z,1.90
2019-06-20T08:12:17.894Z,1.60
2019-06-20T08:17:34.903Z,1.90
2019-06-20T08:22:30.829Z,1.60
2019-06-20T08:27:51.782Z,1.87
2019-06-20T08:32:59.146Z,2.10
2019-06-20T08:38:05.691Z,2.00
2019-06-20T08:43:11.690Z,1.75
2019-06-20T08:48:17.018Z,1.90
2019-06-20T08:53:22.345Z,1.72
2019-06-20T08:58:27.800Z,1.60
2019-06-20T09:03:33.498Z,1.82
2019-06-20T09:08:39.197Z,1.90
2019-06-20T09:13:44.808Z,1.60
2019-06-20T09:18:50.166Z,1.80
2019-06-20T09:23:55.724Z,1.60
2019-06-20T09:29:01.127Z,1.70
2019-06-20T09:34:06.671Z,1.90
2019-06-20T09:39:12.588Z,1.62
2019-06-20T09:44:18.282Z,1.95
2019-06-20T09:49:24.040Z,1.72
2019-06-20T09:54:29.252Z,1.70
2019-06-20T09:59:34.466Z,2.35
2019-06-20T10:04:39.944Z,1.77
2019-06-20T10:09:46.667Z,2.00
2019-06-20T10:14:53.518Z,1.80
2019-06-20T10:19:58.990Z,1.93
2019-06-20T10:25:04.445Z,1.67
2019-06-20T10:30:14.384Z,1.90
2019-06-20T10:35:17.109Z,1.85
2019-06-20T10:40:23.074Z,1.82
2019-06-20T10:45:29.430Z,1.90
2019-06-20T10:50:36.298Z,1.60
2019-06-20T10:55:43.167Z,1.60
2019-06-20T11:00:48.676Z,1.80
2019-06-20T11:05:54.170Z,1.80
2019-06-20T11:10:59.511Z,1.60
2019-06-20T11:16:04.883Z,1.80
2019-06-20T11:21:10.344Z,1.70
2019-06-20T11:26:15.892Z,1.60
2019-06-20T11:31:21.417Z,1.50
2019-06-20T11:36:26.647Z,1.70
2019-06-20T11:41:32.195Z,1.65
2019-06-20T11:46:38.579Z,1.80
2019-06-20T11:51:43.983Z,1.60
2019-06-20T11:56:49.207Z,1.60
2019-06-20T12:01:54.575Z,1.40
2019-06-20T12:06:59.864Z,1.70
2019-06-20T12:12:05.315Z,1.60
2019-06-20T12:17:10.581Z,1.60
2019-06-20T12:22:16.070Z,1.82
2019-06-20T12:27:21.522Z,1.60
2019-06-20T12:32:27.024Z,1.70
2019-06-20T12:37:34.774Z,1.60
2019-06-20T12:42:41.782Z,1.50
2019-06-20T12:47:47.322Z,1.70
2019-06-20T12:52:52.538Z,1.47
2019-06-20T12:57:57.988Z,1.30
2019-06-20T13:03:03.328Z,1.22
2019-06-20T13:08:08.658Z,1.45
2019-06-20T13:13:14.546Z,1.40
2019-06-20T13:18:20.203Z,1.40
2019-06-20T13:23:25.563Z,1.40
2019-06-20T13:28:31.378Z,1.60
2019-06-20T13:33:39.089Z,1.50
2019-06-20T13:38:44.527Z,1.63
2019-06-20T13:43:49.712Z,1.63
2019-06-20T13:48:54.998Z,1.70
2019-06-20T13:54:00.448Z,1.62
2019-06-20T13:59:05.818Z,3.12
2019-06-20T14:04:11.208Z,2.27
2019-06-20T14:09:16.563Z,2.10
2019-06-20T14:14:22.564Z,1.70
2019-06-20T14:19:27.869Z,1.90
2019-06-20T14:24:33.352Z,2.10
2019-06-20T14:29:38.619Z,2.08
2019-06-20T14:34:45.393Z,1.97
2019-06-20T14:39:51.091Z,2.10
2019-06-20T14:44:56.389Z,1.85
2019-06-20T14:50:01.679Z,1.60
2019-06-20T14:55:07.037Z,1.60
2019-06-20T15:00:14.244Z,1.53
2019-06-20T15:05:20.205Z,1.50
2019-06-20T15:10:25.559Z,1.70
2019-06-20T15:15:31.606Z,1.55
2019-06-20T15:20:37.076Z,1.60
2019-06-20T15:25:42.314Z,1.95
2019-06-20T15:30:48.867Z,1.80
2019-06-20T15:35:56.529Z,1.77
2019-06-20T15:41:01.832Z,2.00
2019-06-20T15:46:07.548Z,2.00
2019-06-20T15:51:12.834Z,1.90
2019-06-20T15:56:18.121Z,1.85
2019-06-20T16:01:23.517Z,2.00
2019-06-20T16:06:28.793Z,2.60
2019-06-20T16:11:34.123Z,2.05
2019-06-20T16:16:39.790Z,2.50
2019-06-20T16:21:45.117Z,2.60
2019-06-20T16:26:51.520Z,2.87
2019-06-20T16:31:57.439Z,3.05
2019-06-20T16:37:10.076Z,3.45
2019-06-20T16:42:09.841Z,3.47
2019-06-20T16:47:15.101Z,4.25
2019-06-20T16:52:20.507Z,3.67
2019-06-20T16:57:26.266Z,3.80
2019-06-20T17:02:31.623Z,4.30
2019-06-20T17:07:37.269Z,4.80
2019-06-20T17:12:42.778Z,4.42
2019-06-20T17:17:48.858Z,4.77
2019-06-20T17:22:54.536Z,4.92
2019-06-20T17:27:59.859Z,6.83
2019-06-20T17:33:06.169Z,6.35
2019-06-20T17:38:11.469Z,4.40
2019-06-20T17:43:16.710Z,4.50
2019-06-20T17:48:22.172Z,4.90
2019-06-20T17:53:27.523Z,2.60
2019-06-20T17:58:33.002Z,2.30
2019-06-20T18:03:41.529Z,2.75
2019-06-20T18:08:52.952Z,2.73
2019-06-20T18:14:03.687Z,2.52
2019-06-20T18:19:12.225Z,2.52
2019-06-20T18:24:20.420Z,2.35
2019-06-20T18:29:29.978Z,2.20
2019-06-20T18:34:37.410Z,2.50
2019-06-20T18:39:44.858Z,2.60
2019-06-20T18:44:54.522Z,2.80
2019-06-20T18:50:04.725Z,2.90
2019-06-20T18:55:13.438Z,2.97
2019-06-20T19:00:34.062Z,3.00
2019-06-20T19:05:32.265Z,3.17
2019-06-20T19:10:42.267Z,3.90
2019-06-20T19:15:50.431Z,4.42
2019-06-20T19:20:55.700Z,3.72
2019-06-20T19:26:01.012Z,4.10
2019-06-20T19:31:06.277Z,3.45
2019-06-20T19:36:11.951Z,3.20
2019-06-20T19:41:17.410Z,3.60
2019-06-20T19:46:22.902Z,3.70
2019-06-20T19:51:29.171Z,4.10
2019-06-20T19:56:34.804Z,4.00
2019-06-20T20:01:40.548Z,3.90
2019-06-20T20:10:47.744Z,4.33
2019-06-20T20:15:52.979Z,4.80
2019-06-20T20:20:58.280Z,4.70
2019-06-20T20:26:03.603Z,4.53
2019-06-20T20:31:09.562Z,4.70
2019-06-20T20:36:24.380Z,4.70
2019-06-20T20:41:21.869Z,4.75
2019-06-20T20:46:27.300Z,4.70
2019-06-20T20:51:32.719Z,4.90
2019-06-20T20:56:37.975Z,4.50
2019-06-20T21:01:43.293Z,4.10
2019-06-20T21:06:49.168Z,4.40
2019-06-20T21:11:54.423Z,4.15
2019-06-20T21:17:00.060Z,4.47
2019-06-20T21:22:05.505Z,5.00
2019-06-20T21:27:11.331Z,5.50
2019-06-20T21:32:16.922Z,5.12
2019-06-20T21:37:22.281Z,5.12
2019-06-20T21:42:27.801Z,4.78
2019-06-20T21:47:33.650Z,4.90
2019-06-20T21:52:39.250Z,4.87
2019-06-20T21:57:44.527Z,4.80
2019-06-20T22:02:50.251Z,4.92
2019-06-20T22:07:56.062Z,4.20
2019-06-20T22:13:01.426Z,5.03
2019-06-20T22:18:07.149Z,4.90
2019-06-20T22:23:12.523Z,5.03
2019-06-20T22:28:17.958Z,5.00
2019-06-20T22:33:23.669Z,5.08
2019-06-20T22:38:30.000Z,5.40
2019-06-20T22:43:35.501Z,5.47
2019-06-20T22:48:40.973Z,5.10
2019-06-20T22:53:46.375Z,5.07
2019-06-20T22:58:51.984Z,5.60
2019-06-20T23:03:57.458Z,5.47
2019-06-20T23:09:03.067Z,6.08
2019-06-20T23:14:09.747Z,5.10
2019-06-20T23:19:15.041Z,4.65
2019-06-20T23:24:20.527Z,5.17
2019-06-20T23:29:25.880Z,5.55
2019-06-20T23:34:34.065Z,5.85
2019-06-20T23:39:39.329Z,6.45
2019-06-20T23:44:44.719Z,6.20
2019-06-20T23:49:50.026Z,7.37
2019-06-20T23:54:57.133Z,8.33
